sensor_id;sensor_type;location;lat;lon;timestamp;P1;durP1;ratioP1;P2;durP2;ratioP2
34565;SDS011;20803;42.676;26.348;2023-08-30T00:01:47;7.60;;;5.50;;
34565;SDS011;20803;42.676;26.348;2023-08-30T00:04:13;6.63;;;5.53;;
34565;SDS011;20803;42.676;26.348;2023-08-30T00:06:38;10.80;;;6.10;;
34565;SDS011;20803;42.676;26.348;2023-08-30T00:09:04;8.60;;;5.70;;
34565;SDS011;20803;42.676;26.348;2023-08-30T00:11:29;9.50;;;5.80;;
34565;SDS011;20803;42.676;26.348;2023-08-30T00:14:02;8.83;;;5.73;;
34565;SDS011;20803;42.676;26.348;2023-08-30T00:16:30;7.23;;;5.70;;
34565;SDS011;20803;42.676;26.348;2023-08-30T00:18:56;6.97;;;5.20;;
34565;SDS011;20803;42.676;26.348;2023-08-30T00:21:21;7.20;;;5.60;;
34565;SDS011;20803;42.676;26.348;2023-08-30T00:23:46;6.47;;;5.57;;
34565;SDS011;20803;42.676;26.348;2023-08-30T00:26:12;8.90;;;5.97;;
34565;SDS011;20803;42.676;26.348;2023-08-30T00:28:37;8.20;;;5.80;;
34565;SDS011;20803;42.676;26.348;2023-08-30T00:31:03;8.53;;;5.73;;
34565;SDS011;20803;42.676;26.348;2023-08-30T00:33:28;8.33;;;5.23;;
34565;SDS011;20803;42.676;26.348;2023-08-30T00:35:57;13.63;;;6.13;;
34565;SDS011;20803;42.676;26.348;2023-08-30T00:38:23;8.37;;;5.87;;
34565;SDS011;20803;42.676;26.348;2023-08-30T00:40:51;7.23;;;5.80;;
34565;SDS011;20803;42.676;26.348;2023-08-30T00:43:17;9.13;;;5.43;;
34565;SDS011;20803;42.676;26.348;2023-08-30T00:45:43;8.00;;;6.23;;
34565;SDS011;20803;42.676;26.348;2023-08-30T00:48:09;8.47;;;5.50;;
34565;SDS011;20803;42.676;26.348;2023-08-30T00:50:35;8.93;;;5.63;;
34565;SDS011;20803;42.676;26.348;2023-08-30T00:53:01;7.10;;;5.73;;
34565;SDS011;20803;42.676;26.348;2023-08-30T00:55:30;10.07;;;6.07;;
34565;SDS011;20803;42.676;26.348;2023-08-30T00:57:58;7.67;;;5.70;;
34565;SDS011;20803;42.676;26.348;2023-08-30T01:00:24;7.57;;;5.30;;
34565;SDS011;20803;42.676;26.348;2023-08-30T01:02:49;7.97;;;6.10;;
34565;SDS011;20803;42.676;26.348;2023-08-30T01:05:15;8.70;;;5.40;;
34565;SDS011;20803;42.676;26.348;2023-08-30T01:07:41;9.30;;;5.50;;
34565;SDS011;20803;42.676;26.348;2023-08-30T01:10:07;6.23;;;5.40;;
34565;SDS011;20803;42.676;26.348;2023-08-30T01:12:37;6.40;;;4.83;;
34565;SDS011;20803;42.676;26.348;2023-08-30T01:15:11;7.67;;;5.57;;
34565;SDS011;20803;42.676;26.348;2023-08-30T01:17:41;8.00;;;5.63;;
34565;SDS011;20803;42.676;26.348;2023-08-30T01:20:10;7.77;;;5.47;;
34565;SDS011;20803;42.676;26.348;2023-08-30T01:22:52;8.23;;;6.10;;
34565;SDS011;20803;42.676;26.348;2023-08-30T01:28:06;9.33;;;5.43;;
34565;SDS011;20803;42.676;26.348;2023-08-30T01:30:33;7.60;;;5.53;;
34565;SDS011;20803;42.676;26.348;2023-08-30T01:33:02;5.87;;;5.20;;
34565;SDS011;20803;42.676;26.348;2023-08-30T01:35:29;8.37;;;6.17;;
34565;SDS011;20803;42.676;26.348;2023-08-30T01:38:01;9.23;;;5.30;;
34565;SDS011;20803;42.676;26.348;2023-08-30T01:40:28;6.83;;;5.53;;
34565;SDS011;20803;42.676;26.348;2023-08-30T01:42:58;9.63;;;5.80;;
34565;SDS011;20803;42.676;26.348;2023-08-30T01:45:24;7.33;;;5.57;;
34565;SDS011;20803;42.676;26.348;2023-08-30T01:47:52;8.23;;;5.53;;
34565;SDS011;20803;42.676;26.348;2023-08-30T01:50:19;7.33;;;5.87;;
34565;SDS011;20803;42.676;26.348;2023-08-30T01:52:46;7.57;;;5.77;;
34565;SDS011;20803;42.676;26.348;2023-08-30T01:55:13;6.53;;;5.60;;
34565;SDS011;20803;42.676;26.348;2023-08-30T01:57:39;8.40;;;6.20;;
34565;SDS011;20803;42.676;26.348;2023-08-30T02:00:05;6.27;;;5.67;;
34565;SDS011;20803;42.676;26.348;2023-08-30T02:02:32;7.13;;;5.87;;
34565;SDS011;20803;42.676;26.348;2023-08-30T02:04:58;7.00;;;6.00;;
34565;SDS011;20803;42.676;26.348;2023-08-30T02:07:35;7.83;;;6.20;;
34565;SDS011;20803;42.676;26.348;2023-08-30T02:10:12;11.03;;;6.53;;
34565;SDS011;20803;42.676;26.348;2023-08-30T02:12:44;9.37;;;5.73;;
34565;SDS011;20803;42.676;26.348;2023-08-30T02:15:13;6.63;;;5.83;;
34565;SDS011;20803;42.676;26.348;2023-08-30T02:17:40;7.33;;;5.90;;
34565;SDS011;20803;42.676;26.348;2023-08-30T02:20:06;12.37;;;6.50;;
34565;SDS011;20803;42.676;26.348;2023-08-30T02:22:32;7.33;;;5.83;;
34565;SDS011;20803;42.676;26.348;2023-08-30T02:24:58;7.67;;;5.97;;
34565;SDS011;20803;42.676;26.348;2023-08-30T02:27:24;6.70;;;5.87;;
34565;SDS011;20803;42.676;26.348;2023-08-30T02:29:50;8.10;;;5.97;;
34565;SDS011;20803;42.676;26.348;2023-08-30T02:32:15;7.13;;;6.40;;
34565;SDS011;20803;42.676;26.348;2023-08-30T02:34:45;10.57;;;6.13;;
34565;SDS011;20803;42.676;26.348;2023-08-30T02:37:12;7.60;;;5.87;;
34565;SDS011;20803;42.676;26.348;2023-08-30T02:39:37;9.60;;;6.57;;
34565;SDS011;20803;42.676;26.348;2023-08-30T02:42:03;6.60;;;5.90;;
34565;SDS011;20803;42.676;26.348;2023-08-30T02:44:28;6.90;;;6.20;;
34565;SDS011;20803;42.676;26.348;2023-08-30T02:46:54;6.73;;;5.53;;
34565;SDS011;20803;42.676;26.348;2023-08-30T02:49:19;9.00;;;6.10;;
34565;SDS011;20803;42.676;26.348;2023-08-30T02:51:44;7.77;;;6.00;;
34565;SDS011;20803;42.676;26.348;2023-08-30T02:54:10;10.73;;;6.03;;
34565;SDS011;20803;42.676;26.348;2023-08-30T02:56:37;8.20;;;6.30;;
34565;SDS011;20803;42.676;26.348;2023-08-30T02:59:02;9.23;;;6.03;;
34565;SDS011;20803;42.676;26.348;2023-08-30T03:01:28;7.60;;;6.03;;
34565;SDS011;20803;42.676;26.348;2023-08-30T03:03:53;10.57;;;6.70;;
34565;SDS011;20803;42.676;26.348;2023-08-30T03:06:19;6.77;;;6.07;;
34565;SDS011;20803;42.676;26.348;2023-08-30T03:08:44;6.53;;;5.93;;
34565;SDS011;20803;42.676;26.348;2023-08-30T03:11:10;10.07;;;6.03;;
34565;SDS011;20803;42.676;26.348;2023-08-30T03:13:37;6.20;;;5.53;;
34565;SDS011;20803;42.676;26.348;2023-08-30T03:16:09;7.87;;;6.30;;
34565;SDS011;20803;42.676;26.348;2023-08-30T03:18:36;9.23;;;6.30;;
34565;SDS011;20803;42.676;26.348;2023-08-30T03:21:01;9.33;;;5.97;;
34565;SDS011;20803;42.676;26.348;2023-08-30T03:23:27;9.70;;;5.63;;
34565;SDS011;20803;42.676;26.348;2023-08-30T03:25:53;8.60;;;6.20;;
34565;SDS011;20803;42.676;26.348;2023-08-30T03:28:18;8.80;;;5.70;;
34565;SDS011;20803;42.676;26.348;2023-08-30T03:30:44;7.43;;;6.17;;
34565;SDS011;20803;42.676;26.348;2023-08-30T03:33:09;7.53;;;5.77;;
34565;SDS011;20803;42.676;26.348;2023-08-30T03:35:34;7.40;;;6.20;;
34565;SDS011;20803;42.676;26.348;2023-08-30T03:38:00;9.17;;;5.73;;
34565;SDS011;20803;42.676;26.348;2023-08-30T03:40:25;7.03;;;6.17;;
34565;SDS011;20803;42.676;26.348;2023-08-30T03:42:52;6.97;;;5.47;;
34565;SDS011;20803;42.676;26.348;2023-08-30T03:45:18;9.10;;;6.70;;
34565;SDS011;20803;42.676;26.348;2023-08-30T03:47:43;6.80;;;6.10;;
34565;SDS011;20803;42.676;26.348;2023-08-30T03:50:09;11.30;;;6.03;;
34565;SDS011;20803;42.676;26.348;2023-08-30T03:52:34;8.57;;;6.20;;
34565;SDS011;20803;42.676;26.348;2023-08-30T03:55:00;6.60;;;6.00;;
34565;SDS011;20803;42.676;26.348;2023-08-30T03:57:26;8.30;;;6.47;;
34565;SDS011;20803;42.676;26.348;2023-08-30T03:59:51;10.63;;;6.10;;
34565;SDS011;20803;42.676;26.348;2023-08-30T04:02:19;10.87;;;6.83;;
34565;SDS011;20803;42.676;26.348;2023-08-30T04:04:47;13.50;;;6.97;;
34565;SDS011;20803;42.676;26.348;2023-08-30T04:07:15;8.13;;;6.77;;
34565;SDS011;20803;42.676;26.348;2023-08-30T04:09:41;13.23;;;7.30;;
34565;SDS011;20803;42.676;26.348;2023-08-30T04:12:06;20.33;;;9.43;;
34565;SDS011;20803;42.676;26.348;2023-08-30T04:14:32;14.23;;;8.30;;
34565;SDS011;20803;42.676;26.348;2023-08-30T04:16:57;15.60;;;7.43;;
34565;SDS011;20803;42.676;26.348;2023-08-30T04:19:23;11.40;;;7.23;;
34565;SDS011;20803;42.676;26.348;2023-08-30T04:21:48;10.30;;;7.07;;
34565;SDS011;20803;42.676;26.348;2023-08-30T04:24:14;10.03;;;6.77;;
34565;SDS011;20803;42.676;26.348;2023-08-30T04:26:40;8.73;;;6.63;;
34565;SDS011;20803;42.676;26.348;2023-08-30T04:29:06;10.73;;;7.13;;
34565;SDS011;20803;42.676;26.348;2023-08-30T04:31:31;12.13;;;7.07;;
34565;SDS011;20803;42.676;26.348;2023-08-30T04:33:57;11.43;;;7.30;;
34565;SDS011;20803;42.676;26.348;2023-08-30T04:36:22;8.80;;;6.47;;
34565;SDS011;20803;42.676;26.348;2023-08-30T04:38:48;9.47;;;6.80;;
34565;SDS011;20803;42.676;26.348;2023-08-30T04:41:13;13.90;;;7.23;;
34565;SDS011;20803;42.676;26.348;2023-08-30T04:43:40;8.73;;;6.90;;
34565;SDS011;20803;42.676;26.348;2023-08-30T04:46:06;13.10;;;7.07;;
34565;SDS011;20803;42.676;26.348;2023-08-30T04:48:31;9.83;;;6.90;;
34565;SDS011;20803;42.676;26.348;2023-08-30T04:51:03;12.30;;;7.00;;
34565;SDS011;20803;42.676;26.348;2023-08-30T04:53:29;8.93;;;6.70;;
34565;SDS011;20803;42.676;26.348;2023-08-30T04:55:55;9.73;;;6.43;;
34565;SDS011;20803;42.676;26.348;2023-08-30T04:58:21;11.97;;;6.83;;
34565;SDS011;20803;42.676;26.348;2023-08-30T05:00:46;10.27;;;6.80;;
34565;SDS011;20803;42.676;26.348;2023-08-30T05:03:12;13.53;;;6.73;;
34565;SDS011;20803;42.676;26.348;2023-08-30T05:05:37;11.83;;;7.03;;
34565;SDS011;20803;42.676;26.348;2023-08-30T05:08:03;21.33;;;10.77;;
34565;SDS011;20803;42.676;26.348;2023-08-30T05:10:29;12.77;;;7.50;;
34565;SDS011;20803;42.676;26.348;2023-08-30T05:12:54;8.30;;;6.50;;
34565;SDS011;20803;42.676;26.348;2023-08-30T05:15:20;10.20;;;6.73;;
34565;SDS011;20803;42.676;26.348;2023-08-30T05:17:45;6.63;;;5.77;;
34565;SDS011;20803;42.676;26.348;2023-08-30T05:20:11;9.23;;;6.17;;
34565;SDS011;20803;42.676;26.348;2023-08-30T05:22:37;6.83;;;6.13;;
34565;SDS011;20803;42.676;26.348;2023-08-30T05:25:02;8.30;;;6.33;;
34565;SDS011;20803;42.676;26.348;2023-08-30T05:27:29;13.47;;;6.53;;
34565;SDS011;20803;42.676;26.348;2023-08-30T05:29:54;9.27;;;6.33;;
34565;SDS011;20803;42.676;26.348;2023-08-30T05:32:21;9.30;;;6.90;;
34565;SDS011;20803;42.676;26.348;2023-08-30T05:34:47;12.00;;;7.37;;
34565;SDS011;20803;42.676;26.348;2023-08-30T05:37:12;14.07;;;6.53;;
34565;SDS011;20803;42.676;26.348;2023-08-30T05:39:38;12.73;;;6.93;;
34565;SDS011;20803;42.676;26.348;2023-08-30T05:42:03;9.90;;;6.83;;
34565;SDS011;20803;42.676;26.348;2023-08-30T05:44:29;18.90;;;6.73;;
34565;SDS011;20803;42.676;26.348;2023-08-30T05:46:55;11.13;;;6.93;;
34565;SDS011;20803;42.676;26.348;2023-08-30T05:49:20;8.20;;;6.10;;
34565;SDS011;20803;42.676;26.348;2023-08-30T05:51:46;8.93;;;6.57;;
34565;SDS011;20803;42.676;26.348;2023-08-30T05:54:12;9.43;;;6.63;;
34565;SDS011;20803;42.676;26.348;2023-08-30T05:56:38;7.83;;;6.20;;
34565;SDS011;20803;42.676;26.348;2023-08-30T05:59:03;8.20;;;6.03;;
34565;SDS011;20803;42.676;26.348;2023-08-30T06:01:29;12.37;;;6.43;;
34565;SDS011;20803;42.676;26.348;2023-08-30T06:03:54;9.73;;;6.30;;
34565;SDS011;20803;42.676;26.348;2023-08-30T06:06:19;7.97;;;5.80;;
34565;SDS011;20803;42.676;26.348;2023-08-30T06:08:45;9.67;;;6.30;;
34565;SDS011;20803;42.676;26.348;2023-08-30T06:11:11;9.77;;;6.20;;
34565;SDS011;20803;42.676;26.348;2023-08-30T06:13:36;10.50;;;6.30;;
34565;SDS011;20803;42.676;26.348;2023-08-30T06:16:02;8.43;;;6.20;;
34565;SDS011;20803;42.676;26.348;2023-08-30T06:18:30;11.67;;;7.03;;
34565;SDS011;20803;42.676;26.348;2023-08-30T06:20:57;10.07;;;6.43;;
34565;SDS011;20803;42.676;26.348;2023-08-30T06:23:23;7.13;;;6.40;;
34565;SDS011;20803;42.676;26.348;2023-08-30T06:25:55;11.07;;;6.87;;
34565;SDS011;20803;42.676;26.348;2023-08-30T06:28:21;14.73;;;6.33;;
34565;SDS011;20803;42.676;26.348;2023-08-30T06:30:47;7.67;;;6.60;;
34565;SDS011;20803;42.676;26.348;2023-08-30T06:33:12;13.90;;;6.83;;
34565;SDS011;20803;42.676;26.348;2023-08-30T06:35:37;8.07;;;6.90;;
34565;SDS011;20803;42.676;26.348;2023-08-30T06:38:09;8.87;;;6.90;;
34565;SDS011;20803;42.676;26.348;2023-08-30T06:40:35;7.57;;;6.70;;
34565;SDS011;20803;42.676;26.348;2023-08-30T06:43:01;9.43;;;6.53;;
34565;SDS011;20803;42.676;26.348;2023-08-30T06:45:27;9.03;;;7.33;;
34565;SDS011;20803;42.676;26.348;2023-08-30T06:47:52;8.17;;;7.33;;
34565;SDS011;20803;42.676;26.348;2023-08-30T06:50:18;13.27;;;7.50;;
34565;SDS011;20803;42.676;26.348;2023-08-30T06:52:43;8.80;;;7.60;;
34565;SDS011;20803;42.676;26.348;2023-08-30T06:55:09;9.13;;;7.53;;
34565;SDS011;20803;42.676;26.348;2023-08-30T06:57:35;8.53;;;7.30;;
34565;SDS011;20803;42.676;26.348;2023-08-30T07:00:00;7.83;;;7.13;;
34565;SDS011;20803;42.676;26.348;2023-08-30T07:02:32;12.00;;;7.67;;
34565;SDS011;20803;42.676;26.348;2023-08-30T07:05:02;9.10;;;7.73;;
34565;SDS011;20803;42.676;26.348;2023-08-30T07:07:29;8.63;;;6.93;;
34565;SDS011;20803;42.676;26.348;2023-08-30T07:09:54;11.13;;;7.47;;
34565;SDS011;20803;42.676;26.348;2023-08-30T07:12:20;9.10;;;7.50;;
34565;SDS011;20803;42.676;26.348;2023-08-30T07:14:45;10.93;;;7.83;;
34565;SDS011;20803;42.676;26.348;2023-08-30T07:17:11;11.07;;;7.40;;
34565;SDS011;20803;42.676;26.348;2023-08-30T07:19:36;8.63;;;7.80;;
34565;SDS011;20803;42.676;26.348;2023-08-30T07:22:01;12.50;;;7.60;;
34565;SDS011;20803;42.676;26.348;2023-08-30T07:24:28;9.43;;;7.20;;
34565;SDS011;20803;42.676;26.348;2023-08-30T07:26:53;9.70;;;8.17;;
34565;SDS011;20803;42.676;26.348;2023-08-30T07:29:19;12.80;;;8.13;;
34565;SDS011;20803;42.676;26.348;2023-08-30T07:31:44;8.07;;;7.07;;
34565;SDS011;20803;42.676;26.348;2023-08-30T07:34:09;10.40;;;7.23;;
34565;SDS011;20803;42.676;26.348;2023-08-30T07:36:35;12.03;;;7.33;;
34565;SDS011;20803;42.676;26.348;2023-08-30T07:39:00;9.17;;;7.13;;
34565;SDS011;20803;42.676;26.348;2023-08-30T07:41:27;8.43;;;7.07;;
34565;SDS011;20803;42.676;26.348;2023-08-30T07:43:52;12.17;;;7.00;;
34565;SDS011;20803;42.676;26.348;2023-08-30T07:46:18;10.23;;;7.13;;
34565;SDS011;20803;42.676;26.348;2023-08-30T07:48:43;11.40;;;6.37;;
34565;SDS011;20803;42.676;26.348;2023-08-30T07:51:09;9.73;;;6.97;;
34565;SDS011;20803;42.676;26.348;2023-08-30T07:53:34;8.90;;;7.20;;
34565;SDS011;20803;42.676;26.348;2023-08-30T07:55:59;8.93;;;7.77;;
34565;SDS011;20803;42.676;26.348;2023-08-30T07:58:25;10.87;;;8.17;;
34565;SDS011;20803;42.676;26.348;2023-08-30T08:00:51;10.83;;;7.40;;
34565;SDS011;20803;42.676;26.348;2023-08-30T08:03:17;8.10;;;7.30;;
34565;SDS011;20803;42.676;26.348;2023-08-30T08:05:45;9.43;;;7.03;;
34565;SDS011;20803;42.676;26.348;2023-08-30T08:08:11;11.33;;;8.10;;
34565;SDS011;20803;42.676;26.348;2023-08-30T08:10:36;9.43;;;7.27;;
34565;SDS011;20803;42.676;26.348;2023-08-30T08:13:02;11.37;;;7.80;;
34565;SDS011;20803;42.676;26.348;2023-08-30T08:15:29;8.47;;;7.60;;
34565;SDS011;20803;42.676;26.348;2023-08-30T08:17:57;12.17;;;8.00;;
34565;SDS011;20803;42.676;26.348;2023-08-30T08:20:23;10.43;;;7.87;;
34565;SDS011;20803;42.676;26.348;2023-08-30T08:22:48;10.87;;;7.53;;
34565;SDS011;20803;42.676;26.348;2023-08-30T08:25:14;10.00;;;8.33;;
34565;SDS011;20803;42.676;26.348;2023-08-30T08:27:41;10.93;;;8.43;;
34565;SDS011;20803;42.676;26.348;2023-08-30T08:30:06;11.93;;;8.23;;
34565;SDS011;20803;42.676;26.348;2023-08-30T08:32:32;10.37;;;8.50;;
34565;SDS011;20803;42.676;26.348;2023-08-30T08:34:58;9.03;;;8.23;;
34565;SDS011;20803;42.676;26.348;2023-08-30T08:37:24;11.20;;;8.70;;
34565;SDS011;20803;42.676;26.348;2023-08-30T08:39:49;12.17;;;8.70;;
34565;SDS011;20803;42.676;26.348;2023-08-30T08:42:19;9.83;;;8.93;;
34565;SDS011;20803;42.676;26.348;2023-08-30T08:44:51;13.60;;;9.53;;
34565;SDS011;20803;42.676;26.348;2023-08-30T08:47:20;11.00;;;8.87;;
34565;SDS011;20803;42.676;26.348;2023-08-30T08:49:49;10.53;;;8.77;;
34565;SDS011;20803;42.676;26.348;2023-08-30T08:52:15;13.90;;;9.77;;
34565;SDS011;20803;42.676;26.348;2023-08-30T08:54:41;11.20;;;9.30;;
34565;SDS011;20803;42.676;26.348;2023-08-30T08:57:07;11.17;;;9.33;;
34565;SDS011;20803;42.676;26.348;2023-08-30T08:59:32;11.03;;;9.07;;
34565;SDS011;20803;42.676;26.348;2023-08-30T09:01:59;11.87;;;9.70;;
34565;SDS011;20803;42.676;26.348;2023-08-30T09:04:25;12.23;;;9.23;;
34565;SDS011;20803;42.676;26.348;2023-08-30T09:06:52;12.30;;;9.43;;
34565;SDS011;20803;42.676;26.348;2023-08-30T09:09:17;12.13;;;9.40;;
34565;SDS011;20803;42.676;26.348;2023-08-30T09:11:43;12.57;;;10.20;;
34565;SDS011;20803;42.676;26.348;2023-08-30T09:14:09;10.70;;;8.83;;
34565;SDS011;20803;42.676;26.348;2023-08-30T09:16:34;10.07;;;8.83;;
34565;SDS011;20803;42.676;26.348;2023-08-30T09:19:01;11.47;;;8.53;;
34565;SDS011;20803;42.676;26.348;2023-08-30T09:21:28;9.60;;;8.60;;
34565;SDS011;20803;42.676;26.348;2023-08-30T09:23:57;9.23;;;8.40;;
34565;SDS011;20803;42.676;26.348;2023-08-30T09:26:30;10.40;;;8.40;;
34565;SDS011;20803;42.676;26.348;2023-08-30T09:29:09;10.83;;;8.57;;
34565;SDS011;20803;42.676;26.348;2023-08-30T09:31:35;13.97;;;8.70;;
34565;SDS011;20803;42.676;26.348;2023-08-30T09:34:02;14.27;;;8.80;;
34565;SDS011;20803;42.676;26.348;2023-08-30T09:36:41;9.23;;;8.33;;
34565;SDS011;20803;42.676;26.348;2023-08-30T09:39:07;11.53;;;8.37;;
34565;SDS011;20803;42.676;26.348;2023-08-30T09:41:40;10.87;;;7.80;;
34565;SDS011;20803;42.676;26.348;2023-08-30T09:44:10;11.47;;;7.77;;
34565;SDS011;20803;42.676;26.348;2023-08-30T09:46:49;9.93;;;7.73;;
34565;SDS011;20803;42.676;26.348;2023-08-30T09:49:20;11.13;;;7.50;;
34565;SDS011;20803;42.676;26.348;2023-08-30T09:51:47;10.57;;;8.10;;
34565;SDS011;20803;42.676;26.348;2023-08-30T09:54:17;9.20;;;6.70;;
34565;SDS011;20803;42.676;26.348;2023-08-30T09:56:47;9.20;;;7.70;;
34565;SDS011;20803;42.676;26.348;2023-08-30T09:59:14;11.03;;;7.10;;
34565;SDS011;20803;42.676;26.348;2023-08-30T10:01:40;9.43;;;7.57;;
34565;SDS011;20803;42.676;26.348;2023-08-30T10:04:08;11.47;;;7.03;;
34565;SDS011;20803;42.676;26.348;2023-08-30T10:06:35;10.70;;;7.27;;
34565;SDS011;20803;42.676;26.348;2023-08-30T10:09:04;10.20;;;7.10;;
34565;SDS011;20803;42.676;26.348;2023-08-30T10:11:39;7.70;;;6.63;;
34565;SDS011;20803;42.676;26.348;2023-08-30T10:14:05;9.73;;;6.23;;
34565;SDS011;20803;42.676;26.348;2023-08-30T10:19:15;9.93;;;6.87;;
34565;SDS011;20803;42.676;26.348;2023-08-30T10:21:45;7.47;;;6.37;;
34565;SDS011;20803;42.676;26.348;2023-08-30T10:24:14;11.10;;;7.13;;
34565;SDS011;20803;42.676;26.348;2023-08-30T10:26:41;9.93;;;6.40;;
34565;SDS011;20803;42.676;26.348;2023-08-30T10:29:09;8.53;;;6.70;;
34565;SDS011;20803;42.676;26.348;2023-08-30T10:31:37;8.57;;;6.63;;
34565;SDS011;20803;42.676;26.348;2023-08-30T10:34:11;6.80;;;6.10;;
34565;SDS011;20803;42.676;26.348;2023-08-30T10:36:44;9.00;;;6.37;;
34565;SDS011;20803;42.676;26.348;2023-08-30T10:39:14;8.60;;;6.77;;
34565;SDS011;20803;42.676;26.348;2023-08-30T10:41:55;7.43;;;6.00;;
34565;SDS011;20803;42.676;26.348;2023-08-30T10:44:22;7.23;;;6.53;;
34565;SDS011;20803;42.676;26.348;2023-08-30T10:46:54;9.87;;;6.57;;
34565;SDS011;20803;42.676;26.348;2023-08-30T10:49:20;10.63;;;6.80;;
34565;SDS011;20803;42.676;26.348;2023-08-30T10:51:54;10.53;;;6.70;;
34565;SDS011;20803;42.676;26.348;2023-08-30T10:54:22;6.97;;;6.23;;
34565;SDS011;20803;42.676;26.348;2023-08-30T10:56:54;11.83;;;5.90;;
34565;SDS011;20803;42.676;26.348;2023-08-30T10:59:26;6.77;;;5.80;;
34565;SDS011;20803;42.676;26.348;2023-08-30T11:01:52;6.90;;;5.93;;
34565;SDS011;20803;42.676;26.348;2023-08-30T11:04:18;6.40;;;5.80;;
34565;SDS011;20803;42.676;26.348;2023-08-30T11:06:47;8.30;;;6.10;;
34565;SDS011;20803;42.676;26.348;2023-08-30T11:09:13;6.70;;;5.90;;
34565;SDS011;20803;42.676;26.348;2023-08-30T11:11:40;8.07;;;6.17;;
34565;SDS011;20803;42.676;26.348;2023-08-30T11:14:09;9.80;;;6.70;;
34565;SDS011;20803;42.676;26.348;2023-08-30T11:16:38;9.53;;;6.50;;
34565;SDS011;20803;42.676;26.348;2023-08-30T11:19:04;7.13;;;5.80;;
34565;SDS011;20803;42.676;26.348;2023-08-30T11:21:32;7.70;;;5.73;;
34565;SDS011;20803;42.676;26.348;2023-08-30T11:23:59;6.20;;;5.57;;
34565;SDS011;20803;42.676;26.348;2023-08-30T11:26:24;8.03;;;5.67;;
34565;SDS011;20803;42.676;26.348;2023-08-30T11:28:50;6.67;;;5.67;;
34565;SDS011;20803;42.676;26.348;2023-08-30T11:31:27;8.70;;;5.87;;
34565;SDS011;20803;42.676;26.348;2023-08-30T11:36:21;8.00;;;5.67;;
34565;SDS011;20803;42.676;26.348;2023-08-30T11:38:47;7.33;;;6.13;;
34565;SDS011;20803;42.676;26.348;2023-08-30T11:41:14;8.87;;;6.03;;
34565;SDS011;20803;42.676;26.348;2023-08-30T11:43:40;8.67;;;5.77;;
34565;SDS011;20803;42.676;26.348;2023-08-30T11:46:05;8.47;;;5.97;;
34565;SDS011;20803;42.676;26.348;2023-08-30T11:48:31;7.63;;;5.20;;
34565;SDS011;20803;42.676;26.348;2023-08-30T11:50:57;8.47;;;5.77;;
34565;SDS011;20803;42.676;26.348;2023-08-30T11:53:24;9.70;;;6.03;;
34565;SDS011;20803;42.676;26.348;2023-08-30T11:55:50;6.63;;;5.90;;
34565;SDS011;20803;42.676;26.348;2023-08-30T11:58:17;6.97;;;5.73;;
34565;SDS011;20803;42.676;26.348;2023-08-30T12:00:43;7.57;;;6.20;;
34565;SDS011;20803;42.676;26.348;2023-08-30T12:03:09;6.37;;;5.73;;
34565;SDS011;20803;42.676;26.348;2023-08-30T12:05:48;5.97;;;5.33;;
34565;SDS011;20803;42.676;26.348;2023-08-30T12:08:32;7.53;;;5.80;;
34565;SDS011;20803;42.676;26.348;2023-08-30T12:10:57;8.37;;;5.90;;
34565;SDS011;20803;42.676;26.348;2023-08-30T12:13:26;7.13;;;5.83;;
34565;SDS011;20803;42.676;26.348;2023-08-30T12:15:54;7.63;;;5.43;;
34565;SDS011;20803;42.676;26.348;2023-08-30T12:18:24;5.70;;;5.20;;
34565;SDS011;20803;42.676;26.348;2023-08-30T12:20:56;8.37;;;5.00;;
34565;SDS011;20803;42.676;26.348;2023-08-30T12:23:23;6.13;;;5.63;;
34565;SDS011;20803;42.676;26.348;2023-08-30T12:28:34;8.50;;;6.67;;
34565;SDS011;20803;42.676;26.348;2023-08-30T12:31:01;6.13;;;5.53;;
34565;SDS011;20803;42.676;26.348;2023-08-30T12:33:28;8.83;;;5.77;;
34565;SDS011;20803;42.676;26.348;2023-08-30T12:35:55;6.53;;;5.80;;
34565;SDS011;20803;42.676;26.348;2023-08-30T12:38:22;9.63;;;5.57;;
34565;SDS011;20803;42.676;26.348;2023-08-30T12:40:48;6.60;;;5.83;;
34565;SDS011;20803;42.676;26.348;2023-08-30T12:43:16;8.00;;;6.10;;
34565;SDS011;20803;42.676;26.348;2023-08-30T12:45:42;6.70;;;5.67;;
34565;SDS011;20803;42.676;26.348;2023-08-30T12:48:09;9.20;;;5.50;;
34565;SDS011;20803;42.676;26.348;2023-08-30T12:50:36;8.73;;;5.73;;
34565;SDS011;20803;42.676;26.348;2023-08-30T12:53:02;8.27;;;5.90;;
34565;SDS011;20803;42.676;26.348;2023-08-30T12:55:29;7.00;;;5.40;;
34565;SDS011;20803;42.676;26.348;2023-08-30T12:57:54;9.10;;;5.73;;
34565;SDS011;20803;42.676;26.348;2023-08-30T13:00:20;8.27;;;5.87;;
34565;SDS011;20803;42.676;26.348;2023-08-30T13:02:45;6.80;;;6.07;;
34565;SDS011;20803;42.676;26.348;2023-08-30T13:05:11;6.50;;;5.80;;
34565;SDS011;20803;42.676;26.348;2023-08-30T13:07:36;8.97;;;5.60;;
34565;SDS011;20803;42.676;26.348;2023-08-30T13:10:02;6.10;;;5.50;;
34565;SDS011;20803;42.676;26.348;2023-08-30T13:12:28;9.30;;;5.63;;
34565;SDS011;20803;42.676;26.348;2023-08-30T13:14:54;8.43;;;5.60;;
34565;SDS011;20803;42.676;26.348;2023-08-30T13:17:19;10.33;;;6.20;;
34565;SDS011;20803;42.676;26.348;2023-08-30T13:19:45;9.03;;;5.70;;
34565;SDS011;20803;42.676;26.348;2023-08-30T13:22:10;7.67;;;6.00;;
34565;SDS011;20803;42.676;26.348;2023-08-30T13:24:36;7.93;;;6.03;;
34565;SDS011;20803;42.676;26.348;2023-08-30T13:27:02;7.53;;;6.07;;
34565;SDS011;20803;42.676;26.348;2023-08-30T13:29:28;10.43;;;5.80;;
34565;SDS011;20803;42.676;26.348;2023-08-30T13:31:53;7.63;;;5.60;;
34565;SDS011;20803;42.676;26.348;2023-08-30T13:34:19;8.63;;;5.97;;
34565;SDS011;20803;42.676;26.348;2023-08-30T13:36:44;6.97;;;5.80;;
34565;SDS011;20803;42.676;26.348;2023-08-30T13:39:10;8.57;;;5.80;;
34565;SDS011;20803;42.676;26.348;2023-08-30T13:41:35;9.17;;;6.37;;
34565;SDS011;20803;42.676;26.348;2023-08-30T13:44:01;8.57;;;6.07;;
34565;SDS011;20803;42.676;26.348;2023-08-30T13:46:29;11.33;;;6.13;;
34565;SDS011;20803;42.676;26.348;2023-08-30T13:48:55;11.70;;;6.10;;
34565;SDS011;20803;42.676;26.348;2023-08-30T13:51:23;6.07;;;5.47;;
34565;SDS011;20803;42.676;26.348;2023-08-30T13:53:50;12.20;;;6.07;;
34565;SDS011;20803;42.676;26.348;2023-08-30T13:56:15;7.37;;;5.63;;
34565;SDS011;20803;42.676;26.348;2023-08-30T13:58:41;11.37;;;6.20;;
34565;SDS011;20803;42.676;26.348;2023-08-30T14:01:07;8.03;;;6.07;;
34565;SDS011;20803;42.676;26.348;2023-08-30T14:03:32;6.00;;;5.37;;
34565;SDS011;20803;42.676;26.348;2023-08-30T14:05:58;10.07;;;5.80;;
34565;SDS011;20803;42.676;26.348;2023-08-30T14:08:23;8.10;;;6.07;;
34565;SDS011;20803;42.676;26.348;2023-08-30T14:10:50;9.13;;;5.30;;
34565;SDS011;20803;42.676;26.348;2023-08-30T14:13:16;6.93;;;6.23;;
34565;SDS011;20803;42.676;26.348;2023-08-30T14:15:41;7.03;;;5.70;;
34565;SDS011;20803;42.676;26.348;2023-08-30T14:18:07;6.93;;;5.77;;
34565;SDS011;20803;42.676;26.348;2023-08-30T14:20:33;10.07;;;5.37;;
34565;SDS011;20803;42.676;26.348;2023-08-30T14:22:59;8.67;;;5.73;;
34565;SDS011;20803;42.676;26.348;2023-08-30T14:25:24;9.07;;;6.27;;
34565;SDS011;20803;42.676;26.348;2023-08-30T14:27:50;9.53;;;5.87;;
34565;SDS011;20803;42.676;26.348;2023-08-30T14:30:15;5.40;;;4.90;;
34565;SDS011;20803;42.676;26.348;2023-08-30T14:32:41;13.43;;;5.70;;
34565;SDS011;20803;42.676;26.348;2023-08-30T14:35:07;8.93;;;5.37;;
34565;SDS011;20803;42.676;26.348;2023-08-30T14:37:32;7.53;;;5.50;;
34565;SDS011;20803;42.676;26.348;2023-08-30T14:40:03;8.23;;;5.37;;